sensor_id;sensor_type;location;lat;lon;timestamp;temperature;humidity
17815;DHT22;9031;50.974;11.330;2023-12-28T00:01:59;9.70;99.90
17815;DHT22;9031;50.974;11.330;2023-12-28T00:04:24;9.60;99.90
17815;DHT22;9031;50.974;11.330;2023-12-28T00:06:50;9.70;99.90
17815;DHT22;9031;50.974;11.330;2023-12-28T00:09:15;9.80;99.90
17815;DHT22;9031;50.974;11.330;2023-12-28T00:11:41;9.70;99.90
17815;DHT22;9031;50.974;11.330;2023-12-28T00:14:06;9.70;99.90
17815;DHT22;9031;50.974;11.330;2023-12-28T00:16:32;9.70;99.90
17815;DHT22;9031;50.974;11.330;2023-12-28T00:18:58;9.60;99.90
17815;DHT22;9031;50.974;11.330;2023-12-28T00:21:23;9.60;99.90
17815;DHT22;9031;50.974;11.330;2023-12-28T00:23:49;9.60;99.90
17815;DHT22;9031;50.974;11.330;2023-12-28T00:26:14;9.50;99.90
17815;DHT22;9031;50.974;11.330;2023-12-28T00:28:41;9.50;99.90
17815;DHT22;9031;50.974;11.330;2023-12-28T00:31:09;9.40;99.90
17815;DHT22;9031;50.974;11.330;2023-12-28T00:33:34;9.50;99.90
17815;DHT22;9031;50.974;11.330;2023-12-28T00:36:00;9.50;99.90
17815;DHT22;9031;50.974;11.330;2023-12-28T00:38:25;9.50;99.90
17815;DHT22;9031;50.974;11.330;2023-12-28T00:40:51;9.50;99.90
17815;DHT22;9031;50.974;11.330;2023-12-28T00:43:16;9.60;99.90
17815;DHT22;9031;50.974;11.330;2023-12-28T00:45:42;9.50;99.90
17815;DHT22;9031;50.974;11.330;2023-12-28T00:48:08;9.40;99.90
17815;DHT22;9031;50.974;11.330;2023-12-28T00:50:33;9.40;99.90
17815;DHT22;9031;50.974;11.330;2023-12-28T00:52:59;9.40;99.90
17815;DHT22;9031;50.974;11.330;2023-12-28T00:55:24;9.40;99.90
17815;DHT22;9031;50.974;11.330;2023-12-28T00:57:50;9.40;99.90
17815;DHT22;9031;50.974;11.330;2023-12-28T01:00:15;9.40;99.90
17815;DHT22;9031;50.974;11.330;2023-12-28T01:02:41;9.40;99.90
17815;DHT22;9031;50.974;11.330;2023-12-28T01:05:07;9.40;99.90
17815;DHT22;9031;50.974;11.330;2023-12-28T01:07:32;9.40;99.90
17815;DHT22;9031;50.974;11.330;2023-12-28T01:09:58;9.40;99.90
17815;DHT22;9031;50.974;11.330;2023-12-28T01:12:23;9.40;99.90
17815;DHT22;9031;50.974;11.330;2023-12-28T01:14:49;9.40;99.90
17815;DHT22;9031;50.974;11.330;2023-12-28T01:17:14;9.30;99.90
17815;DHT22;9031;50.974;11.330;2023-12-28T01:19:40;9.40;99.90
17815;DHT22;9031;50.974;11.330;2023-12-28T01:22:05;9.40;99.90
17815;DHT22;9031;50.974;11.330;2023-12-28T01:24:31;9.40;99.90
17815;DHT22;9031;50.974;11.330;2023-12-28T01:26:56;9.40;99.90
17815;DHT22;9031;50.974;11.330;2023-12-28T01:29:22;9.40;99.90
17815;DHT22;9031;50.974;11.330;2023-12-28T01:31:47;9.30;99.90
17815;DHT22;9031;50.974;11.330;2023-12-28T01:34:13;9.30;99.90
17815;DHT22;9031;50.974;11.330;2023-12-28T01:36:38;9.30;99.90
17815;DHT22;9031;50.974;11.330;2023-12-28T01:39:06;9.30;99.90
17815;DHT22;9031;50.974;11.330;2023-12-28T01:41:32;9.20;99.90
17815;DHT22;9031;50.974;11.330;2023-12-28T01:43:57;9.20;99.90
17815;DHT22;9031;50.974;11.330;2023-12-28T01:46:23;9.10;99.90
17815;DHT22;9031;50.974;11.330;2023-12-28T01:48:49;9.00;99.90
17815;DHT22;9031;50.974;11.330;2023-12-28T01:51:16;9.00;99.90
17815;DHT22;9031;50.974;11.330;2023-12-28T01:53:44;9.00;99.90
17815;DHT22;9031;50.974;11.330;2023-12-28T01:56:10;9.30;99.90
17815;DHT22;9031;50.974;11.330;2023-12-28T01:58:36;9.40;99.90
17815;DHT22;9031;50.974;11.330;2023-12-28T02:01:03;9.40;99.90
17815;DHT22;9031;50.974;11.330;2023-12-28T02:03:29;9.50;99.90
17815;DHT22;9031;50.974;11.330;2023-12-28T02:05:55;9.60;99.90
17815;DHT22;9031;50.974;11.330;2023-12-28T02:08:20;9.50;99.90
17815;DHT22;9031;50.974;11.330;2023-12-28T02:10:46;9.50;99.90
17815;DHT22;9031;50.974;11.330;2023-12-28T02:13:11;9.60;99.90
17815;DHT22;9031;50.974;11.330;2023-12-28T02:15:37;9.60;99.90
17815;DHT22;9031;50.974;11.330;2023-12-28T02:18:07;9.40;99.90
17815;DHT22;9031;50.974;11.330;2023-12-28T02:20:35;9.40;99.90
17815;DHT22;9031;50.974;11.330;2023-12-28T02:23:01;9.40;99.90
17815;DHT22;9031;50.974;11.330;2023-12-28T02:25:27;9.40;99.90
17815;DHT22;9031;50.974;11.330;2023-12-28T02:27:53;9.40;99.90
17815;DHT22;9031;50.974;11.330;2023-12-28T02:30:21;9.30;99.90
17815;DHT22;9031;50.974;11.330;2023-12-28T02:35:25;9.30;99.90
17815;DHT22;9031;50.974;11.330;2023-12-28T02:37:56;9.50;99.90
17815;DHT22;9031;50.974;11.330;2023-12-28T02:40:24;9.50;99.90
17815;DHT22;9031;50.974;11.330;2023-12-28T02:42:50;9.50;99.90
17815;DHT22;9031;50.974;11.330;2023-12-28T02:45:16;9.60;99.90
17815;DHT22;9031;50.974;11.330;2023-12-28T02:47:42;9.60;99.90
17815;DHT22;9031;50.974;11.330;2023-12-28T02:50:09;9.60;99.90
17815;DHT22;9031;50.974;11.330;2023-12-28T02:52:35;9.70;99.90
17815;DHT22;9031;50.974;11.330;2023-12-28T02:55:00;9.70;99.90
17815;DHT22;9031;50.974;11.330;2023-12-28T02:57:26;9.70;99.90
17815;DHT22;9031;50.974;11.330;2023-12-28T02:59:51;9.60;99.90
17815;DHT22;9031;50.974;11.330;2023-12-28T03:02:16;9.60;99.90
17815;DHT22;9031;50.974;11.330;2023-12-28T03:04:42;9.60;99.90
17815;DHT22;9031;50.974;11.330;2023-12-28T03:07:08;9.60;99.90
17815;DHT22;9031;50.974;11.330;2023-12-28T03:09:33;9.60;99.90
17815;DHT22;9031;50.974;11.330;2023-12-28T03:12:00;9.70;99.90
17815;DHT22;9031;50.974;11.330;2023-12-28T03:14:25;9.60;99.90
17815;DHT22;9031;50.974;11.330;2023-12-28T03:16:51;9.60;99.90
17815;DHT22;9031;50.974;11.330;2023-12-28T03:19:17;9.80;99.90
17815;DHT22;9031;50.974;11.330;2023-12-28T03:21:43;10.20;99.90
17815;DHT22;9031;50.974;11.330;2023-12-28T03:24:08;10.30;99.90
17815;DHT22;9031;50.974;11.330;2023-12-28T03:26:38;10.30;99.90
17815;DHT22;9031;50.974;11.330;2023-12-28T03:29:05;10.30;99.90
17815;DHT22;9031;50.974;11.330;2023-12-28T03:31:31;10.30;99.90
17815;DHT22;9031;50.974;11.330;2023-12-28T03:33:56;10.30;99.90
17815;DHT22;9031;50.974;11.330;2023-12-28T03:36:21;10.30;99.90
17815;DHT22;9031;50.974;11.330;2023-12-28T03:38:48;10.30;99.90
17815;DHT22;9031;50.974;11.330;2023-12-28T03:41:18;10.30;99.90
17815;DHT22;9031;50.974;11.330;2023-12-28T03:43:47;10.30;99.90
17815;DHT22;9031;50.974;11.330;2023-12-28T03:46:13;10.30;99.90
17815;DHT22;9031;50.974;11.330;2023-12-28T03:48:38;10.20;99.90
17815;DHT22;9031;50.974;11.330;2023-12-28T03:51:04;10.20;99.90
17815;DHT22;9031;50.974;11.330;2023-12-28T03:53:30;10.20;99.90
17815;DHT22;9031;50.974;11.330;2023-12-28T03:55:59;10.10;99.90
17815;DHT22;9031;50.974;11.330;2023-12-28T03:58:25;10.10;99.90
17815;DHT22;9031;50.974;11.330;2023-12-28T04:00:50;10.10;99.90
17815;DHT22;9031;50.974;11.330;2023-12-28T04:03:16;10.00;99.90
17815;DHT22;9031;50.974;11.330;2023-12-28T04:05:43;10.00;99.90
17815;DHT22;9031;50.974;11.330;2023-12-28T04:08:09;10.00;99.90
17815;DHT22;9031;50.974;11.330;2023-12-28T04:10:34;10.00;99.90
17815;DHT22;9031;50.974;11.330;2023-12-28T04:13:02;10.10;99.90
17815;DHT22;9031;50.974;11.330;2023-12-28T04:15:28;10.00;99.90
17815;DHT22;9031;50.974;11.330;2023-12-28T04:17:54;10.00;99.90
17815;DHT22;9031;50.974;11.330;2023-12-28T04:20:19;9.90;99.90
17815;DHT22;9031;50.974;11.330;2023-12-28T04:22:45;9.90;99.90
17815;DHT22;9031;50.974;11.330;2023-12-28T04:25:11;9.90;99.90
17815;DHT22;9031;50.974;11.330;2023-12-28T04:27:37;9.90;99.90
17815;DHT22;9031;50.974;11.330;2023-12-28T04:30:03;9.80;99.90
17815;DHT22;9031;50.974;11.330;2023-12-28T04:32:31;9.80;99.90
17815;DHT22;9031;50.974;11.330;2023-12-28T04:34:56;9.80;99.90
17815;DHT22;9031;50.974;11.330;2023-12-28T04:37:21;9.80;99.90
17815;DHT22;9031;50.974;11.330;2023-12-28T04:39:47;9.80;99.90
17815;DHT22;9031;50.974;11.330;2023-12-28T04:42:12;9.70;99.90
17815;DHT22;9031;50.974;11.330;2023-12-28T04:44:38;9.70;99.90
17815;DHT22;9031;50.974;11.330;2023-12-28T04:47:04;9.70;99.90
17815;DHT22;9031;50.974;11.330;2023-12-28T04:49:30;9.70;99.90
17815;DHT22;9031;50.974;11.330;2023-12-28T04:51:55;9.60;99.90
17815;DHT22;9031;50.974;11.330;2023-12-28T04:54:21;9.60;99.90
17815;DHT22;9031;50.974;11.330;2023-12-28T04:56:47;9.60;99.90
17815;DHT22;9031;50.974;11.330;2023-12-28T04:59:13;9.60;99.90
17815;DHT22;9031;50.974;11.330;2023-12-28T05:01:45;9.50;99.90
17815;DHT22;9031;50.974;11.330;2023-12-28T05:04:11;9.60;99.90
17815;DHT22;9031;50.974;11.330;2023-12-28T05:06:36;9.60;99.90
17815;DHT22;9031;50.974;11.330;2023-12-28T05:09:02;9.60;99.90
17815;DHT22;9031;50.974;11.330;2023-12-28T05:11:28;9.60;99.90
17815;DHT22;9031;50.974;11.330;2023-12-28T05:13:54;9.60;99.90
17815;DHT22;9031;50.974;11.330;2023-12-28T05:16:20;9.50;99.90
17815;DHT22;9031;50.974;11.330;2023-12-28T05:18:46;9.40;99.90
17815;DHT22;9031;50.974;11.330;2023-12-28T05:21:12;9.40;99.90
17815;DHT22;9031;50.974;11.330;2023-12-28T05:23:37;9.30;99.90
17815;DHT22;9031;50.974;11.330;2023-12-28T05:26:03;9.30;99.90
17815;DHT22;9031;50.974;11.330;2023-12-28T05:28:28;9.30;99.90
17815;DHT22;9031;50.974;11.330;2023-12-28T05:30:54;9.20;99.90
17815;DHT22;9031;50.974;11.330;2023-12-28T05:33:19;9.20;99.90
17815;DHT22;9031;50.974;11.330;2023-12-28T05:35:45;9.20;99.90
17815;DHT22;9031;50.974;11.330;2023-12-28T05:38:10;9.20;99.90
17815;DHT22;9031;50.974;11.330;2023-12-28T05:40:36;9.10;99.90
17815;DHT22;9031;50.974;11.330;2023-12-28T05:43:01;9.10;99.90
17815;DHT22;9031;50.974;11.330;2023-12-28T05:45:27;9.10;99.90
17815;DHT22;9031;50.974;11.330;2023-12-28T05:47:52;9.10;99.90
17815;DHT22;9031;50.974;11.330;2023-12-28T05:50:18;9.00;99.90
17815;DHT22;9031;50.974;11.330;2023-12-28T05:52:43;9.00;99.90
17815;DHT22;9031;50.974;11.330;2023-12-28T05:55:09;9.00;99.90
17815;DHT22;9031;50.974;11.330;2023-12-28T05:57:34;9.00;99.90
17815;DHT22;9031;50.974;11.330;2023-12-28T06:00:00;9.00;99.90
17815;DHT22;9031;50.974;11.330;2023-12-28T06:02:25;8.90;99.90
17815;DHT22;9031;50.974;11.330;2023-12-28T06:04:51;8.90;99.90
17815;DHT22;9031;50.974;11.330;2023-12-28T06:07:16;8.90;99.90
17815;DHT22;9031;50.974;11.330;2023-12-28T06:09:42;8.80;99.90
17815;DHT22;9031;50.974;11.330;2023-12-28T06:12:07;8.80;99.90
17815;DHT22;9031;50.974;11.330;2023-12-28T06:14:33;8.80;99.90
17815;DHT22;9031;50.974;11.330;2023-12-28T06:16:58;8.90;99.90
17815;DHT22;9031;50.974;11.330;2023-12-28T06:19:24;8.90;99.90
17815;DHT22;9031;50.974;11.330;2023-12-28T06:21:50;8.80;99.90
17815;DHT22;9031;50.974;11.330;2023-12-28T06:24:15;8.90;99.90
17815;DHT22;9031;50.974;11.330;2023-12-28T06:26:44;8.80;99.90
17815;DHT22;9031;50.974;11.330;2023-12-28T06:29:10;8.80;99.90
17815;DHT22;9031;50.974;11.330;2023-12-28T06:31:36;8.80;99.90
17815;DHT22;9031;50.974;11.330;2023-12-28T06:34:05;8.80;99.90
17815;DHT22;9031;50.974;11.330;2023-12-28T06:36:32;8.80;99.90
17815;DHT22;9031;50.974;11.330;2023-12-28T06:38:58;8.70;99.90
17815;DHT22;9031;50.974;11.330;2023-12-28T06:41:24;8.70;99.90
17815;DHT22;9031;50.974;11.330;2023-12-28T06:43:49;8.70;99.90
17815;DHT22;9031;50.974;11.330;2023-12-28T06:46:15;8.70;99.90
17815;DHT22;9031;50.974;11.330;2023-12-28T06:48:41;8.70;99.90
17815;DHT22;9031;50.974;11.330;2023-12-28T06:51:07;8.60;99.90
17815;DHT22;9031;50.974;11.330;2023-12-28T06:53:32;8.60;99.90
17815;DHT22;9031;50.974;11.330;2023-12-28T06:55:58;8.60;99.90
17815;DHT22;9031;50.974;11.330;2023-12-28T06:58:23;8.50;99.90
17815;DHT22;9031;50.974;11.330;2023-12-28T07:00:49;8.50;99.90
17815;DHT22;9031;50.974;11.330;2023-12-28T07:03:14;8.50;99.90
17815;DHT22;9031;50.974;11.330;2023-12-28T07:05:40;8.50;99.90
17815;DHT22;9031;50.974;11.330;2023-12-28T07:08:06;8.50;99.90
17815;DHT22;9031;50.974;11.330;2023-12-28T07:10:31;8.60;99.90
17815;DHT22;9031;50.974;11.330;2023-12-28T07:12:57;8.60;99.90
17815;DHT22;9031;50.974;11.330;2023-12-28T07:15:22;8.60;99.90
17815;DHT22;9031;50.974;11.330;2023-12-28T07:17:48;8.60;99.90
17815;DHT22;9031;50.974;11.330;2023-12-28T07:20:13;8.50;99.90
17815;DHT22;9031;50.974;11.330;2023-12-28T07:22:39;8.60;99.90
17815;DHT22;9031;50.974;11.330;2023-12-28T07:25:05;8.60;99.90
17815;DHT22;9031;50.974;11.330;2023-12-28T07:27:32;8.50;99.90
17815;DHT22;9031;50.974;11.330;2023-12-28T07:29:58;8.50;99.90
17815;DHT22;9031;50.974;11.330;2023-12-28T07:32:23;8.40;99.90
17815;DHT22;9031;50.974;11.330;2023-12-28T07:34:54;8.40;99.90
17815;DHT22;9031;50.974;11.330;2023-12-28T07:37:20;8.40;99.90
17815;DHT22;9031;50.974;11.330;2023-12-28T07:39:46;8.30;99.90
17815;DHT22;9031;50.974;11.330;2023-12-28T07:42:12;8.30;99.90
17815;DHT22;9031;50.974;11.330;2023-12-28T07:44:38;8.20;99.90
17815;DHT22;9031;50.974;11.330;2023-12-28T07:47:04;8.20;99.90
17815;DHT22;9031;50.974;11.330;2023-12-28T07:49:31;8.30;99.90
17815;DHT22;9031;50.974;11.330;2023-12-28T07:51:56;8.20;99.90
17815;DHT22;9031;50.974;11.330;2023-12-28T07:54:22;8.20;99.90
17815;DHT22;9031;50.974;11.330;2023-12-28T07:56:47;8.10;99.90
17815;DHT22;9031;50.974;11.330;2023-12-28T07:59:13;8.10;99.90
17815;DHT22;9031;50.974;11.330;2023-12-28T08:01:38;8.10;99.90
17815;DHT22;9031;50.974;11.330;2023-12-28T08:04:04;8.10;99.90
17815;DHT22;9031;50.974;11.330;2023-12-28T08:06:30;8.10;99.90
17815;DHT22;9031;50.974;11.330;2023-12-28T08:08:59;8.20;99.90
17815;DHT22;9031;50.974;11.330;2023-12-28T08:11:27;8.10;99.90
17815;DHT22;9031;50.974;11.330;2023-12-28T08:13:52;8.20;99.90
17815;DHT22;9031;50.974;11.330;2023-12-28T08:16:18;8.20;99.90
17815;DHT22;9031;50.974;11.330;2023-12-28T08:18:43;8.20;99.90
17815;DHT22;9031;50.974;11.330;2023-12-28T08:21:09;8.30;99.90
17815;DHT22;9031;50.974;11.330;2023-12-28T08:23:34;8.30;99.90
17815;DHT22;9031;50.974;11.330;2023-12-28T08:26:00;8.40;99.90
17815;DHT22;9031;50.974;11.330;2023-12-28T08:28:25;8.40;99.90
17815;DHT22;9031;50.974;11.330;2023-12-28T08:30:51;8.50;99.90
17815;DHT22;9031;50.974;11.330;2023-12-28T08:33:16;8.50;99.90
17815;DHT22;9031;50.974;11.330;2023-12-28T08:35:42;8.50;99.90
17815;DHT22;9031;50.974;11.330;2023-12-28T08:38:07;8.50;99.90
17815;DHT22;9031;50.974;11.330;2023-12-28T08:40:34;8.50;99.90
17815;DHT22;9031;50.974;11.330;2023-12-28T08:42:59;8.50;99.90
17815;DHT22;9031;50.974;11.330;2023-12-28T08:45:25;8.50;99.90
17815;DHT22;9031;50.974;11.330;2023-12-28T08:47:51;8.50;99.90
17815;DHT22;9031;50.974;11.330;2023-12-28T08:50:16;8.60;99.90
17815;DHT22;9031;50.974;11.330;2023-12-28T08:52:42;8.70;99.90
17815;DHT22;9031;50.974;11.330;2023-12-28T08:55:07;8.80;99.90
17815;DHT22;9031;50.974;11.330;2023-12-28T08:57:33;8.90;99.90
17815;DHT22;9031;50.974;11.330;2023-12-28T08:59:58;9.00;99.90
17815;DHT22;9031;50.974;11.330;2023-12-28T09:02:28;9.00;99.90
17815;DHT22;9031;50.974;11.330;2023-12-28T09:04:53;9.00;99.90
17815;DHT22;9031;50.974;11.330;2023-12-28T09:07:19;9.00;99.90
17815;DHT22;9031;50.974;11.330;2023-12-28T09:09:45;9.10;99.90
17815;DHT22;9031;50.974;11.330;2023-12-28T09:12:11;9.10;99.90
17815;DHT22;9031;50.974;11.330;2023-12-28T09:14:36;9.10;99.90
17815;DHT22;9031;50.974;11.330;2023-12-28T09:17:02;9.20;99.90
17815;DHT22;9031;50.974;11.330;2023-12-28T09:19:27;9.10;99.90
17815;DHT22;9031;50.974;11.330;2023-12-28T09:21:54;9.10;99.90
17815;DHT22;9031;50.974;11.330;2023-12-28T09:24:19;9.10;99.90
17815;DHT22;9031;50.974;11.330;2023-12-28T09:26:45;9.10;99.90
17815;DHT22;9031;50.974;11.330;2023-12-28T09:29:10;9.10;99.90
17815;DHT22;9031;50.974;11.330;2023-12-28T09:31:37;9.10;99.90
17815;DHT22;9031;50.974;11.330;2023-12-28T09:34:03;9.10;99.90
17815;DHT22;9031;50.974;11.330;2023-12-28T09:36:30;9.10;99.90
17815;DHT22;9031;50.974;11.330;2023-12-28T09:38:56;9.00;99.90
17815;DHT22;9031;50.974;11.330;2023-12-28T09:41:24;9.00;99.90
17815;DHT22;9031;50.974;11.330;2023-12-28T09:43:58;9.00;99.90
17815;DHT22;9031;50.974;11.330;2023-12-28T09:46:26;9.00;99.90
17815;DHT22;9031;50.974;11.330;2023-12-28T09:48:54;9.10;99.90
17815;DHT22;9031;50.974;11.330;2023-12-28T09:51:21;9.20;99.90
17815;DHT22;9031;50.974;11.330;2023-12-28T09:53:47;9.30;99.90
17815;DHT22;9031;50.974;11.330;2023-12-28T09:56:13;9.30;99.90
17815;DHT22;9031;50.974;11.330;2023-12-28T09:58:42;9.30;99.90
17815;DHT22;9031;50.974;11.330;2023-12-28T10:01:10;9.40;99.90
17815;DHT22;9031;50.974;11.330;2023-12-28T10:03:36;9.50;99.90
17815;DHT22;9031;50.974;11.330;2023-12-28T10:06:01;9.60;99.90
17815;DHT22;9031;50.974;11.330;2023-12-28T10:08:27;9.70;99.90
17815;DHT22;9031;50.974;11.330;2023-12-28T10:10:53;9.80;99.90
17815;DHT22;9031;50.974;11.330;2023-12-28T10:13:20;9.90;99.90
17815;DHT22;9031;50.974;11.330;2023-12-28T10:15:47;10.00;99.90
17815;DHT22;9031;50.974;11.330;2023-12-28T10:18:12;10.00;99.90
17815;DHT22;9031;50.974;11.330;2023-12-28T10:20:38;10.00;99.90
17815;DHT22;9031;50.974;11.330;2023-12-28T10:23:04;10.10;99.90
17815;DHT22;9031;50.974;11.330;2023-12-28T10:25:31;10.00;99.90
17815;DHT22;9031;50.974;11.330;2023-12-28T10:27:57;10.00;99.90
17815;DHT22;9031;50.974;11.330;2023-12-28T10:30:23;9.90;99.90
17815;DHT22;9031;50.974;11.330;2023-12-28T10:32:49;10.00;99.90
17815;DHT22;9031;50.974;11.330;2023-12-28T10:35:14;10.10;99.90
17815;DHT22;9031;50.974;11.330;2023-12-28T10:37:41;10.00;99.90
17815;DHT22;9031;50.974;11.330;2023-12-28T10:40:08;10.10;99.90
17815;DHT22;9031;50.974;11.330;2023-12-28T10:43:01;10.10;99.90
17815;DHT22;9031;50.974;11.330;2023-12-28T10:45:29;10.20;99.90
17815;DHT22;9031;50.974;11.330;2023-12-28T10:50:33;10.50;99.90
17815;DHT22;9031;50.974;11.330;2023-12-28T10:56:10;10.40;99.90
17815;DHT22;9031;50.974;11.330;2023-12-28T10:58:48;10.40;99.90
17815;DHT22;9031;50.974;11.330;2023-12-28T11:01:29;10.40;99.90
17815;DHT22;9031;50.974;11.330;2023-12-28T11:06:43;10.30;99.90
17815;DHT22;9031;50.974;11.330;2023-12-28T11:09:10;10.30;99.90
17815;DHT22;9031;50.974;11.330;2023-12-28T11:11:37;10.40;99.90
17815;DHT22;9031;50.974;11.330;2023-12-28T11:14:03;10.40;99.90
17815;DHT22;9031;50.974;11.330;2023-12-28T11:16:30;10.40;99.90
17815;DHT22;9031;50.974;11.330;2023-12-28T11:18:57;10.40;99.90
17815;DHT22;9031;50.974;11.330;2023-12-28T11:21:23;10.40;99.90
17815;DHT22;9031;50.974;11.330;2023-12-28T11:23:49;10.40;99.90
17815;DHT22;9031;50.974;11.330;2023-12-28T11:26:21;10.40;99.90
17815;DHT22;9031;50.974;11.330;2023-12-28T11:28:47;10.30;99.90
17815;DHT22;9031;50.974;11.330;2023-12-28T11:31:16;10.30;99.90
17815;DHT22;9031;50.974;11.330;2023-12-28T11:33:47;10.30;99.90
17815;DHT22;9031;50.974;11.330;2023-12-28T11:37:07;10.40;99.90
17815;DHT22;9031;50.974;11.330;2023-12-28T11:39:07;10.40;99.90
17815;DHT22;9031;50.974;11.330;2023-12-28T11:41:35;10.40;99.90
17815;DHT22;9031;50.974;11.330;2023-12-28T11:44:04;10.40;99.90
17815;DHT22;9031;50.974;11.330;2023-12-28T11:46:34;10.50;99.90
17815;DHT22;9031;50.974;11.330;2023-12-28T11:49:05;10.60;99.90
17815;DHT22;9031;50.974;11.330;2023-12-28T11:51:33;10.50;99.90
17815;DHT22;9031;50.974;11.330;2023-12-28T11:53:59;10.50;99.90
17815;DHT22;9031;50.974;11.330;2023-12-28T11:56:25;10.40;99.90
17815;DHT22;9031;50.974;11.330;2023-12-28T11:58:51;10.40;99.90
17815;DHT22;9031;50.974;11.330;2023-12-28T12:01:16;10.40;99.90
17815;DHT22;9031;50.974;11.330;2023-12-28T12:03:42;10.40;99.90
17815;DHT22;9031;50.974;11.330;2023-12-28T12:06:08;10.50;99.90
17815;DHT22;9031;50.974;11.330;2023-12-28T12:08:34;10.50;99.90
17815;DHT22;9031;50.974;11.330;2023-12-28T12:11:00;10.40;99.90
17815;DHT22;9031;50.974;11.330;2023-12-28T12:13:28;10.40;99.90
17815;DHT22;9031;50.974;11.330;2023-12-28T12:15:53;10.40;99.90
17815;DHT22;9031;50.974;11.330;2023-12-28T12:18:19;10.50;99.90
17815;DHT22;9031;50.974;11.330;2023-12-28T12:20:45;10.40;99.90
17815;DHT22;9031;50.974;11.330;2023-12-28T12:23:10;10.40;99.90
17815;DHT22;9031;50.974;11.330;2023-12-28T12:25:38;10.40;99.90
17815;DHT22;9031;50.974;11.330;2023-12-28T12:28:04;10.50;99.90
17815;DHT22;9031;50.974;11.330;2023-12-28T12:30:29;10.40;99.90
17815;DHT22;9031;50.974;11.330;2023-12-28T12:32:55;10.30;99.90
17815;DHT22;9031;50.974;11.330;2023-12-28T12:35:21;10.40;99.90
17815;DHT22;9031;50.974;11.330;2023-12-28T12:37:47;10.40;99.90
17815;DHT22;9031;50.974;11.330;2023-12-28T12:40:15;10.40;99.90
17815;DHT22;9031;50.974;11.330;2023-12-28T12:42:41;10.40;99.90
17815;DHT22;9031;50.974;11.330;2023-12-28T12:45:08;10.50;99.90
17815;DHT22;9031;50.974;11.330;2023-12-28T12:47:33;10.50;99.90
17815;DHT22;9031;50.974;11.330;2023-12-28T12:50:00;10.50;99.90
17815;DHT22;9031;50.974;11.330;2023-12-28T12:52:26;10.50;99.90
17815;DHT22;9031;50.974;11.330;2023-12-28T12:54:56;10.50;99.90
17815;DHT22;9031;50.974;11.330;2023-12-28T12:57:24;10.40;99.90
17815;DHT22;9031;50.974;11.330;2023-12-28T12:59:49;10.40;99.90
17815;DHT22;9031;50.974;11.330;2023-12-28T13:02:15;10.40;99.90
17815;DHT22;9031;50.974;11.330;2023-12-28T13:04:42;10.40;99.90
17815;DHT22;9031;50.974;11.330;2023-12-28T13:07:07;10.40;99.90
17815;DHT22;9031;50.974;11.330;2023-12-28T13:09:34;10.40;99.90
17815;DHT22;9031;50.974;11.330;2023-12-28T13:12:00;10.30;99.90
17815;DHT22;9031;50.974;11.330;2023-12-28T13:14:26;10.40;99.90
17815;DHT22;9031;50.974;11.330;2023-12-28T13:16:52;10.40;99.90
17815;DHT22;9031;50.974;11.330;2023-12-28T13:19:20;10.40;99.90
17815;DHT22;9031;50.974;11.330;2023-12-28T13:21:45;10.40;99.90
17815;DHT22;9031;50.974;11.330;2023-12-28T13:24:11;10.30;99.90
17815;DHT22;9031;50.974;11.330;2023-12-28T13:26:36;10.40;99.90
17815;DHT22;9031;50.974;11.330;2023-12-28T13:29:02;10.40;99.90
17815;DHT22;9031;50.974;11.330;2023-12-28T13:31:28;10.40;99.90
17815;DHT22;9031;50.974;11.330;2023-12-28T13:33:53;10.40;99.90
17815;DHT22;9031;50.974;11.330;2023-12-28T13:36:19;10.50;99.90
17815;DHT22;9031;50.974;11.330;2023-12-28T13:38:44;10.70;99.90
17815;DHT22;9031;50.974;11.330;2023-12-28T13:41:10;10.50;99.90
17815;DHT22;9031;50.974;11.330;2023-12-28T13:43:35;10.50;99.90
17815;DHT22;9031;50.974;11.330;2023-12-28T13:46:01;11.10;99.90
17815;DHT22;9031;50.974;11.330;2023-12-28T13:48:32;11.90;99.90
17815;DHT22;9031;50.974;11.330;2023-12-28T13:50:57;11.80;99.90
17815;DHT22;9031;50.974;11.330;2023-12-28T13:53:22;11.10;99.90
17815;DHT22;9031;50.974;11.330;2023-12-28T13:55:48;10.90;99.90
17815;DHT22;9031;50.974;11.330;2023-12-28T13:58:13;10.90;99.90
17815;DHT22;9031;50.974;11.330;2023-12-28T14:00:40;11.10;99.90
17815;DHT22;9031;50.974;11.330;2023-12-28T14:03:05;11.50;99.90
17815;DHT22;9031;50.974;11.330;2023-12-28T14:05:31;11.70;99.90
17815;DHT22;9031;50.974;11.330;2023-12-28T14:07:57;11.80;99.90
17815;DHT22;9031;50.974;11.330;2023-12-28T14:10:22;12.00;99.90
17815;DHT22;9031;50.974;11.330;2023-12-28T14:12:48;12.10;99.90
17815;DHT22;9031;50.974;11.330;2023-12-28T14:15:13;11.60;99.90
17815;DHT22;9031;50.974;11.330;2023-12-28T14:17:41;11.10;99.90
17815;DHT22;9031;50.974;11.330;2023-12-28T14:20:07;10.90;99.90
17815;DHT22;9031;50.974;11.330;2023-12-28T14:22:34;10.90;99.90
17815;DHT22;9031;50.974;11.330;2023-12-28T14:25:00;10.80;99.90
17815;DHT22;9031;50.974;11.330;2023-12-28T14:27:29;10.70;99.90
17815;DHT22;9031;50.974;11.330;2023-12-28T14:29:54;10.40;99.90
17815;DHT22;9031;50.974;11.330;2023-12-28T14:32:20;10.20;99.90
17815;DHT22;9031;50.974;11.330;2023-12-28T14:34:46;10.00;99.90
17815;DHT22;9031;50.974;11.330;2023-12-28T14:37:12;9.90;99.90
17815;DHT22;9031;50.974;11.330;2023-12-28T14:39:37;9.80;99.90
17815;DHT22;9031;50.974;11.330;2023-12-28T14:42:03;9.70;99.90
17815;DHT22;9031;50.974;11.330;2023-12-28T14:44:29;9.70;99.90
17815;DHT22;9031;50.974;11.330;2023-12-28T14:46:55;9.60;99.90
17815;DHT22;9031;50.974;11.330;2023-12-28T14:49:20;9.60;99.90
17815;DHT22;9031;50.974;11.330;2023-12-28T14:51:45;9.60;99.90
17815;DHT22;9031;50.974;11.330;2023-12-28T14:54:11;9.50;99.90
17815;DHT22;9031;50.974;11.330;2023-12-28T14:56:37;9.40;99.90
17815;DHT22;9031;50.974;11.330;2023-12-28T14:59:02;9.30;99.90
17815;DHT22;9031;50.974;11.330;2023-12-28T15:01:28;9.30;99.90
17815;DHT22;9031;50.974;11.330;2023-12-28T15:03:53;9.20;99.90
17815;DHT22;9031;50.974;11.330;2023-12-28T15:06:18;9.10;99.90
17815;DHT22;9031;50.974;11.330;2023-12-28T15:08:44;9.00;99.90
17815;DHT22;9031;50.974;11.330;2023-12-28T15:11:10;9.00;99.90
17815;DHT22;9031;50.974;11.330;2023-12-28T15:13:37;8.90;99.90
17815;DHT22;9031;50.974;11.330;2023-12-28T15:16:02;8.80;99.90
17815;DHT22;9031;50.974;11.330;2023-12-28T15:18:30;8.80;99.90
17815;DHT22;9031;50.974;11.330;2023-12-28T15:20:55;8.70;99.90
17815;DHT22;9031;50.974;11.330;2023-12-28T15:23:21;8.70;99.90
17815;DHT22;9031;50.974;11.330;2023-12-28T15:25:47;8.70;99.90
17815;DHT22;9031;50.974;11.330;2023-12-28T15:28:13;8.70;99.90
17815;DHT22;9031;50.974;11.330;2023-12-28T15:30:39;8.70;99.90
17815;DHT22;9031;50.974;11.330;2023-12-28T15:33:04;8.60;99.90
17815;DHT22;9031;50.974;11.330;2023-12-28T15:35:30;8.60;99.90
17815;DHT22;9031;50.974;11.330;2023-12-28T15:37:56;8.50;99.90
17815;DHT22;9031;50.974;11.330;2023-12-28T15:40:22;8.50;99.90
17815;DHT22;9031;50.974;11.330;2023-12-28T15:42:49;8.40;99.90
17815;DHT22;9031;50.974;11.330;2023-12-28T15:45:15;8.30;99.90